Terminal Aerodrome Forecast
Issued by NWS

Home | Current Version | Previous Version | Text Only | Print | Product List | Glossary Off
Versions: 1 2 3 4 5 6 7 8 9 10 11 12 13 14 15 16 17 18 19 20 21 22 23 24 25 26 27 28 29

615
FTUS43 KDLH 242342
TAFBRD
TAF
KBRD 242342Z 2500/2524 19008KT P6SM VCTS SCT025 BKN080CB
     FM250400 28004KT P6SM OVC020
     FM250700 35003KT 4SM BR OVC008
     FM251400 36007KT P6SM BKN008 OVC015
     FM251600 35007KT 5SM -SHRA OVC015=

USA.gov is the U.S. government's official web portal to all federal, state and local government web resources and services.